CheckWX is a tool to help pilots better visualize weather data.  It is not intended as a substitute for an official pre-flight weather briefing.

21:23:11 UTC

KANB TAF
Anniston Regional Airport
Anniston, Alabama, USA
KANB 171720Z 1718/1818 33006KT P6SM FEW070 FM180100 00000KT P6SM SKC FM181700 09005KT P6SM FEW060

Sep-17@
18:00 UTC

Sep-17 @ 18:00 UTC

Sep-18@
01:00 UTC

Sep-18 @ 01:00 UTC

KANB 171720Z 1718/1818 33006KT P6SM FEW070
Wind
  • 330° at 6 KTS
Cloud Levels
  • Few at 7,000' AGL

Sep-18@
01:00 UTC

Sep-18 @ 01:00 UTC

Sep-18@
17:00 UTC

Sep-18 @ 17:00 UTC

FM180100 00000KT P6SM SKC

From

From Standard forecast or significant change

Cloud Levels
  • Clear skies

Sep-18@
17:00 UTC

Sep-18 @ 17:00 UTC

Sep-18@
18:00 UTC

Sep-18 @ 18:00 UTC

FM181700 09005KT P6SM FEW060

From

From Standard forecast or significant change

Wind
  • 090° at 5 KTS
Cloud Levels
  • Few at 6,000' AGL